sensor_id;sensor_type;location;lat;lon;timestamp;temperature;humidity
21678;DHT22;11000;50.360;7.582;2023-11-19T00:00:05;10.30;99.90
21678;DHT22;11000;50.360;7.582;2023-11-19T00:02:31;10.30;99.90
21678;DHT22;11000;50.360;7.582;2023-11-19T00:04:51;10.30;99.90
21678;DHT22;11000;50.360;7.582;2023-11-19T00:07:12;10.30;99.90
21678;DHT22;11000;50.360;7.582;2023-11-19T00:09:34;10.30;99.90
21678;DHT22;11000;50.360;7.582;2023-11-19T00:11:57;10.30;99.90
21678;DHT22;11000;50.360;7.582;2023-11-19T00:14:18;10.30;99.90
21678;DHT22;11000;50.360;7.582;2023-11-19T00:16:38;10.30;99.90
21678;DHT22;11000;50.360;7.582;2023-11-19T00:18:59;10.30;99.90
21678;DHT22;11000;50.360;7.582;2023-11-19T00:21:19;10.30;99.90
21678;DHT22;11000;50.360;7.582;2023-11-19T00:23:40;10.30;99.90
21678;DHT22;11000;50.360;7.582;2023-11-19T00:26:00;10.40;99.90
21678;DHT22;11000;50.360;7.582;2023-11-19T00:28:21;10.50;99.90
21678;DHT22;11000;50.360;7.582;2023-11-19T00:30:41;10.50;99.90
21678;DHT22;11000;50.360;7.582;2023-11-19T00:33:02;10.50;99.90
21678;DHT22;11000;50.360;7.582;2023-11-19T00:35:22;10.50;99.90
21678;DHT22;11000;50.360;7.582;2023-11-19T00:37:43;10.50;99.90
21678;DHT22;11000;50.360;7.582;2023-11-19T00:40:06;10.50;99.90
21678;DHT22;11000;50.360;7.582;2023-11-19T00:42:27;10.50;99.90
21678;DHT22;11000;50.360;7.582;2023-11-19T00:44:47;10.60;99.90
21678;DHT22;11000;50.360;7.582;2023-11-19T00:47:08;10.60;99.90
21678;DHT22;11000;50.360;7.582;2023-11-19T00:49:28;10.70;99.90
21678;DHT22;11000;50.360;7.582;2023-11-19T00:51:49;10.60;99.90
21678;DHT22;11000;50.360;7.582;2023-11-19T00:54:09;10.70;99.90
21678;DHT22;11000;50.360;7.582;2023-11-19T00:56:30;10.70;99.90
21678;DHT22;11000;50.360;7.582;2023-11-19T00:58:50;10.70;99.90
21678;DHT22;11000;50.360;7.582;2023-11-19T01:01:14;10.80;99.90
21678;DHT22;11000;50.360;7.582;2023-11-19T01:03:34;10.70;99.90
21678;DHT22;11000;50.360;7.582;2023-11-19T01:05:55;10.70;99.90
21678;DHT22;11000;50.360;7.582;2023-11-19T01:08:15;10.80;99.90
21678;DHT22;11000;50.360;7.582;2023-11-19T01:10:39;10.80;99.90
21678;DHT22;11000;50.360;7.582;2023-11-19T01:12:59;10.90;99.90
21678;DHT22;11000;50.360;7.582;2023-11-19T01:15:20;10.90;99.90
21678;DHT22;11000;50.360;7.582;2023-11-19T01:17:40;10.90;99.90
21678;DHT22;11000;50.360;7.582;2023-11-19T01:20:01;10.90;99.90
21678;DHT22;11000;50.360;7.582;2023-11-19T01:22:21;10.90;99.90
21678;DHT22;11000;50.360;7.582;2023-11-19T01:24:42;11.00;99.90
21678;DHT22;11000;50.360;7.582;2023-11-19T01:27:02;11.00;99.90
21678;DHT22;11000;50.360;7.582;2023-11-19T01:29:23;11.00;99.90
21678;DHT22;11000;50.360;7.582;2023-11-19T01:31:45;11.00;99.90
21678;DHT22;11000;50.360;7.582;2023-11-19T01:34:07;11.00;99.90
21678;DHT22;11000;50.360;7.582;2023-11-19T01:36:27;11.00;99.90
21678;DHT22;11000;50.360;7.582;2023-11-19T01:38:48;11.00;99.90
21678;DHT22;11000;50.360;7.582;2023-11-19T01:41:09;11.00;99.90
21678;DHT22;11000;50.360;7.582;2023-11-19T01:43:36;11.10;99.90
21678;DHT22;11000;50.360;7.582;2023-11-19T01:45:57;11.10;99.90
21678;DHT22;11000;50.360;7.582;2023-11-19T01:48:18;11.10;99.90
21678;DHT22;11000;50.360;7.582;2023-11-19T01:50:38;11.20;99.90
21678;DHT22;11000;50.360;7.582;2023-11-19T01:53:00;11.10;99.90
21678;DHT22;11000;50.360;7.582;2023-11-19T01:55:21;11.20;99.90
21678;DHT22;11000;50.360;7.582;2023-11-19T01:57:42;11.20;99.90
21678;DHT22;11000;50.360;7.582;2023-11-19T02:00:02;11.20;99.90
21678;DHT22;11000;50.360;7.582;2023-11-19T02:02:24;11.20;99.90
21678;DHT22;11000;50.360;7.582;2023-11-19T02:04:49;11.30;99.90
21678;DHT22;11000;50.360;7.582;2023-11-19T02:07:10;11.30;99.90
21678;DHT22;11000;50.360;7.582;2023-11-19T02:09:31;11.20;99.90
21678;DHT22;11000;50.360;7.582;2023-11-19T02:11:51;11.20;99.90
21678;DHT22;11000;50.360;7.582;2023-11-19T02:14:12;11.20;99.90
21678;DHT22;11000;50.360;7.582;2023-11-19T02:16:32;11.20;99.90
21678;DHT22;11000;50.360;7.582;2023-11-19T02:18:53;11.20;99.90
21678;DHT22;11000;50.360;7.582;2023-11-19T02:21:14;11.20;99.90
21678;DHT22;11000;50.360;7.582;2023-11-19T02:23:35;11.20;99.90
21678;DHT22;11000;50.360;7.582;2023-11-19T02:26:03;11.20;99.90
21678;DHT22;11000;50.360;7.582;2023-11-19T02:28:26;11.20;99.90
21678;DHT22;11000;50.360;7.582;2023-11-19T02:30:46;11.20;99.90
21678;DHT22;11000;50.360;7.582;2023-11-19T02:33:07;11.20;99.90
21678;DHT22;11000;50.360;7.582;2023-11-19T02:35:28;11.30;99.90
21678;DHT22;11000;50.360;7.582;2023-11-19T02:37:51;11.30;99.90
21678;DHT22;11000;50.360;7.582;2023-11-19T02:40:11;11.30;99.90
21678;DHT22;11000;50.360;7.582;2023-11-19T02:42:33;11.20;99.90
21678;DHT22;11000;50.360;7.582;2023-11-19T02:44:54;11.30;99.90
21678;DHT22;11000;50.360;7.582;2023-11-19T02:47:14;11.30;99.90
21678;DHT22;11000;50.360;7.582;2023-11-19T02:49:35;11.40;99.90
21678;DHT22;11000;50.360;7.582;2023-11-19T02:51:56;11.40;99.90
21678;DHT22;11000;50.360;7.582;2023-11-19T02:54:16;11.40;99.90
21678;DHT22;11000;50.360;7.582;2023-11-19T02:56:37;11.40;99.90
21678;DHT22;11000;50.360;7.582;2023-11-19T02:58:59;11.40;99.90
21678;DHT22;11000;50.360;7.582;2023-11-19T03:01:26;11.40;99.90
21678;DHT22;11000;50.360;7.582;2023-11-19T03:03:50;11.50;99.90
21678;DHT22;11000;50.360;7.582;2023-11-19T03:06:17;11.50;99.90
21678;DHT22;11000;50.360;7.582;2023-11-19T03:08:38;11.50;99.90
21678;DHT22;11000;50.360;7.582;2023-11-19T03:10:59;11.50;99.90
21678;DHT22;11000;50.360;7.582;2023-11-19T03:13:19;11.40;99.90
21678;DHT22;11000;50.360;7.582;2023-11-19T03:15:40;11.40;99.90
21678;DHT22;11000;50.360;7.582;2023-11-19T03:18:01;11.40;99.90
21678;DHT22;11000;50.360;7.582;2023-11-19T03:20:21;11.40;99.90
21678;DHT22;11000;50.360;7.582;2023-11-19T03:22:44;11.40;99.90
21678;DHT22;11000;50.360;7.582;2023-11-19T03:25:04;11.40;99.90
21678;DHT22;11000;50.360;7.582;2023-11-19T03:27:25;11.40;99.90
21678;DHT22;11000;50.360;7.582;2023-11-19T03:29:45;11.40;99.90
21678;DHT22;11000;50.360;7.582;2023-11-19T03:32:06;11.40;99.90
21678;DHT22;11000;50.360;7.582;2023-11-19T03:34:27;11.40;99.90
21678;DHT22;11000;50.360;7.582;2023-11-19T03:36:47;11.40;99.90
21678;DHT22;11000;50.360;7.582;2023-11-19T03:39:08;11.30;99.90
21678;DHT22;11000;50.360;7.582;2023-11-19T03:41:29;11.40;99.90
21678;DHT22;11000;50.360;7.582;2023-11-19T03:43:49;11.40;99.90
21678;DHT22;11000;50.360;7.582;2023-11-19T03:46:20;11.40;99.90
21678;DHT22;11000;50.360;7.582;2023-11-19T03:48:40;11.40;99.90
21678;DHT22;11000;50.360;7.582;2023-11-19T03:51:01;11.40;99.90
21678;DHT22;11000;50.360;7.582;2023-11-19T03:53:22;11.40;99.90
21678;DHT22;11000;50.360;7.582;2023-11-19T03:55:44;11.40;99.90
21678;DHT22;11000;50.360;7.582;2023-11-19T03:58:04;11.40;99.90
21678;DHT22;11000;50.360;7.582;2023-11-19T04:00:25;11.50;99.90
21678;DHT22;11000;50.360;7.582;2023-11-19T04:02:45;11.50;99.90
21678;DHT22;11000;50.360;7.582;2023-11-19T04:05:07;11.50;99.90
21678;DHT22;11000;50.360;7.582;2023-11-19T04:07:28;11.60;99.90
21678;DHT22;11000;50.360;7.582;2023-11-19T04:09:48;11.50;99.90
21678;DHT22;11000;50.360;7.582;2023-11-19T04:12:09;11.50;99.90
21678;DHT22;11000;50.360;7.582;2023-11-19T04:14:29;11.60;99.90
21678;DHT22;11000;50.360;7.582;2023-11-19T04:16:50;11.60;99.90
21678;DHT22;11000;50.360;7.582;2023-11-19T04:19:11;11.60;99.90
21678;DHT22;11000;50.360;7.582;2023-11-19T04:21:32;11.50;99.90
21678;DHT22;11000;50.360;7.582;2023-11-19T04:23:53;11.60;99.90
21678;DHT22;11000;50.360;7.582;2023-11-19T04:26:14;11.50;99.90
21678;DHT22;11000;50.360;7.582;2023-11-19T04:28:35;11.50;99.90
21678;DHT22;11000;50.360;7.582;2023-11-19T04:30:56;11.60;99.90
21678;DHT22;11000;50.360;7.582;2023-11-19T04:33:16;11.60;99.90
21678;DHT22;11000;50.360;7.582;2023-11-19T04:35:37;11.60;99.90
21678;DHT22;11000;50.360;7.582;2023-11-19T04:37:57;11.50;99.90
21678;DHT22;11000;50.360;7.582;2023-11-19T04:40:18;11.50;99.90
21678;DHT22;11000;50.360;7.582;2023-11-19T04:42:38;11.50;99.90
21678;DHT22;11000;50.360;7.582;2023-11-19T04:45:00;11.50;99.90
21678;DHT22;11000;50.360;7.582;2023-11-19T04:47:21;11.50;99.90
21678;DHT22;11000;50.360;7.582;2023-11-19T04:49:41;11.50;99.90
21678;DHT22;11000;50.360;7.582;2023-11-19T04:52:05;11.40;99.90
21678;DHT22;11000;50.360;7.582;2023-11-19T04:54:25;11.40;99.90
21678;DHT22;11000;50.360;7.582;2023-11-19T04:56:46;11.50;99.90
21678;DHT22;11000;50.360;7.582;2023-11-19T04:59:07;11.50;99.90
21678;DHT22;11000;50.360;7.582;2023-11-19T05:01:29;11.40;99.90
21678;DHT22;11000;50.360;7.582;2023-11-19T05:03:49;11.40;99.90
21678;DHT22;11000;50.360;7.582;2023-11-19T05:06:11;11.50;99.90
21678;DHT22;11000;50.360;7.582;2023-11-19T05:08:31;11.50;99.90
21678;DHT22;11000;50.360;7.582;2023-11-19T05:10:52;11.50;99.90
21678;DHT22;11000;50.360;7.582;2023-11-19T05:13:13;11.50;99.90
21678;DHT22;11000;50.360;7.582;2023-11-19T05:15:33;11.50;99.90
21678;DHT22;11000;50.360;7.582;2023-11-19T05:17:54;11.50;99.90
21678;DHT22;11000;50.360;7.582;2023-11-19T05:20:14;11.50;99.90
21678;DHT22;11000;50.360;7.582;2023-11-19T05:22:35;11.50;99.90
21678;DHT22;11000;50.360;7.582;2023-11-19T05:24:57;11.50;99.90
21678;DHT22;11000;50.360;7.582;2023-11-19T05:27:18;11.50;99.90
21678;DHT22;11000;50.360;7.582;2023-11-19T05:29:38;11.50;99.90
21678;DHT22;11000;50.360;7.582;2023-11-19T05:31:59;11.50;99.90
21678;DHT22;11000;50.360;7.582;2023-11-19T05:34:20;11.40;99.90
21678;DHT22;11000;50.360;7.582;2023-11-19T05:36:40;11.40;99.90
21678;DHT22;11000;50.360;7.582;2023-11-19T05:39:01;11.40;99.90
21678;DHT22;11000;50.360;7.582;2023-11-19T05:41:21;11.40;99.90
21678;DHT22;11000;50.360;7.582;2023-11-19T05:43:42;11.40;99.90
21678;DHT22;11000;50.360;7.582;2023-11-19T05:46:03;11.40;99.90
21678;DHT22;11000;50.360;7.582;2023-11-19T05:48:25;11.40;99.90
21678;DHT22;11000;50.360;7.582;2023-11-19T05:50:46;11.40;99.90
21678;DHT22;11000;50.360;7.582;2023-11-19T05:53:07;11.40;99.90
21678;DHT22;11000;50.360;7.582;2023-11-19T05:55:30;11.40;99.90
21678;DHT22;11000;50.360;7.582;2023-11-19T05:57:51;11.40;99.90
21678;DHT22;11000;50.360;7.582;2023-11-19T06:00:12;11.40;99.90
21678;DHT22;11000;50.360;7.582;2023-11-19T06:02:34;11.40;99.90
21678;DHT22;11000;50.360;7.582;2023-11-19T06:04:54;11.40;99.90
21678;DHT22;11000;50.360;7.582;2023-11-19T06:07:15;11.30;99.90
21678;DHT22;11000;50.360;7.582;2023-11-19T06:09:35;11.40;99.90
21678;DHT22;11000;50.360;7.582;2023-11-19T06:11:56;11.40;99.90
21678;DHT22;11000;50.360;7.582;2023-11-19T06:14:18;11.30;99.90
21678;DHT22;11000;50.360;7.582;2023-11-19T06:16:38;11.30;99.90
21678;DHT22;11000;50.360;7.582;2023-11-19T06:19:00;11.30;99.90
21678;DHT22;11000;50.360;7.582;2023-11-19T06:21:20;11.20;99.90
21678;DHT22;11000;50.360;7.582;2023-11-19T06:23:41;11.30;99.90
21678;DHT22;11000;50.360;7.582;2023-11-19T06:26:02;11.30;99.90
21678;DHT22;11000;50.360;7.582;2023-11-19T06:28:23;11.20;99.90
21678;DHT22;11000;50.360;7.582;2023-11-19T06:30:43;11.20;99.90
21678;DHT22;11000;50.360;7.582;2023-11-19T06:33:04;11.20;99.90
21678;DHT22;11000;50.360;7.582;2023-11-19T06:35:24;11.20;99.90
21678;DHT22;11000;50.360;7.582;2023-11-19T06:37:45;11.20;99.90
21678;DHT22;11000;50.360;7.582;2023-11-19T06:40:06;11.10;99.90
21678;DHT22;11000;50.360;7.582;2023-11-19T06:42:27;11.10;99.90
21678;DHT22;11000;50.360;7.582;2023-11-19T06:44:47;11.10;99.90
21678;DHT22;11000;50.360;7.582;2023-11-19T06:47:08;11.10;99.90
21678;DHT22;11000;50.360;7.582;2023-11-19T06:49:28;11.10;99.90
21678;DHT22;11000;50.360;7.582;2023-11-19T06:51:49;11.10;99.90
21678;DHT22;11000;50.360;7.582;2023-11-19T06:54:09;11.20;99.90
21678;DHT22;11000;50.360;7.582;2023-11-19T06:56:30;11.30;99.90
21678;DHT22;11000;50.360;7.582;2023-11-19T06:58:51;11.30;99.90
21678;DHT22;11000;50.360;7.582;2023-11-19T07:01:12;11.40;99.90
21678;DHT22;11000;50.360;7.582;2023-11-19T07:03:32;11.40;99.90
21678;DHT22;11000;50.360;7.582;2023-11-19T07:05:55;11.40;99.90
21678;DHT22;11000;50.360;7.582;2023-11-19T07:08:16;11.50;99.90
21678;DHT22;11000;50.360;7.582;2023-11-19T07:10:36;11.50;99.90
21678;DHT22;11000;50.360;7.582;2023-11-19T07:12:57;11.60;99.90
21678;DHT22;11000;50.360;7.582;2023-11-19T07:15:18;11.70;99.90
21678;DHT22;11000;50.360;7.582;2023-11-19T07:17:39;11.70;99.90
21678;DHT22;11000;50.360;7.582;2023-11-19T07:20:00;11.70;99.90
21678;DHT22;11000;50.360;7.582;2023-11-19T07:22:21;11.70;99.90
21678;DHT22;11000;50.360;7.582;2023-11-19T07:24:41;11.70;99.90
21678;DHT22;11000;50.360;7.582;2023-11-19T07:27:03;11.80;99.90
21678;DHT22;11000;50.360;7.582;2023-11-19T07:29:24;11.80;99.90
21678;DHT22;11000;50.360;7.582;2023-11-19T07:31:44;11.70;99.90
21678;DHT22;11000;50.360;7.582;2023-11-19T07:34:05;11.70;99.90
21678;DHT22;11000;50.360;7.582;2023-11-19T07:36:26;11.70;99.90
21678;DHT22;11000;50.360;7.582;2023-11-19T07:38:47;11.80;99.90
21678;DHT22;11000;50.360;7.582;2023-11-19T07:41:10;11.80;99.90
21678;DHT22;11000;50.360;7.582;2023-11-19T07:43:33;11.80;99.90
21678;DHT22;11000;50.360;7.582;2023-11-19T07:45:53;11.90;99.90
21678;DHT22;11000;50.360;7.582;2023-11-19T07:48:14;12.00;99.90
21678;DHT22;11000;50.360;7.582;2023-11-19T07:50:35;12.00;99.90
21678;DHT22;11000;50.360;7.582;2023-11-19T07:52:56;12.00;99.90
21678;DHT22;11000;50.360;7.582;2023-11-19T07:55:16;12.10;99.90
21678;DHT22;11000;50.360;7.582;2023-11-19T07:57:37;12.10;99.90
21678;DHT22;11000;50.360;7.582;2023-11-19T07:59:58;12.20;99.90
21678;DHT22;11000;50.360;7.582;2023-11-19T08:02:18;12.20;99.90
21678;DHT22;11000;50.360;7.582;2023-11-19T08:04:39;12.30;99.90
21678;DHT22;11000;50.360;7.582;2023-11-19T08:07:05;12.40;99.90
21678;DHT22;11000;50.360;7.582;2023-11-19T08:09:25;12.40;99.90
21678;DHT22;11000;50.360;7.582;2023-11-19T08:11:46;12.50;99.90
21678;DHT22;11000;50.360;7.582;2023-11-19T08:14:06;12.50;99.90
21678;DHT22;11000;50.360;7.582;2023-11-19T08:16:26;12.60;99.90
21678;DHT22;11000;50.360;7.582;2023-11-19T08:18:47;12.60;99.90
21678;DHT22;11000;50.360;7.582;2023-11-19T08:21:07;12.80;99.90
21678;DHT22;11000;50.360;7.582;2023-11-19T08:23:29;12.80;99.90
21678;DHT22;11000;50.360;7.582;2023-11-19T08:25:49;12.80;99.90
21678;DHT22;11000;50.360;7.582;2023-11-19T08:28:10;12.80;99.90
21678;DHT22;11000;50.360;7.582;2023-11-19T08:30:30;12.80;99.90
21678;DHT22;11000;50.360;7.582;2023-11-19T08:32:51;12.80;99.90
21678;DHT22;11000;50.360;7.582;2023-11-19T08:35:11;12.80;99.90
21678;DHT22;11000;50.360;7.582;2023-11-19T08:37:32;12.80;99.90
21678;DHT22;11000;50.360;7.582;2023-11-19T08:39:52;12.80;99.90
21678;DHT22;11000;50.360;7.582;2023-11-19T08:42:13;12.80;99.90
21678;DHT22;11000;50.360;7.582;2023-11-19T08:44:34;12.90;99.90
21678;DHT22;11000;50.360;7.582;2023-11-19T08:46:54;12.90;99.90
21678;DHT22;11000;50.360;7.582;2023-11-19T08:49:15;12.90;99.90
21678;DHT22;11000;50.360;7.582;2023-11-19T08:51:35;12.90;99.90
21678;DHT22;11000;50.360;7.582;2023-11-19T08:53:56;12.90;99.90
21678;DHT22;11000;50.360;7.582;2023-11-19T08:56:17;12.90;99.90
21678;DHT22;11000;50.360;7.582;2023-11-19T08:58:38;12.90;99.90
21678;DHT22;11000;50.360;7.582;2023-11-19T09:00:58;12.90;99.90
21678;DHT22;11000;50.360;7.582;2023-11-19T09:03:19;13.00;99.90
21678;DHT22;11000;50.360;7.582;2023-11-19T09:05:40;12.90;99.90
21678;DHT22;11000;50.360;7.582;2023-11-19T09:08:01;12.90;99.90
21678;DHT22;11000;50.360;7.582;2023-11-19T09:10:21;12.90;99.90
21678;DHT22;11000;50.360;7.582;2023-11-19T09:12:42;13.00;99.90
21678;DHT22;11000;50.360;7.582;2023-11-19T09:15:02;13.00;99.90
21678;DHT22;11000;50.360;7.582;2023-11-19T09:17:23;13.00;99.90
21678;DHT22;11000;50.360;7.582;2023-11-19T09:19:44;13.00;99.90
21678;DHT22;11000;50.360;7.582;2023-11-19T09:22:04;13.10;99.90
21678;DHT22;11000;50.360;7.582;2023-11-19T09:24:25;13.10;99.90
21678;DHT22;11000;50.360;7.582;2023-11-19T09:26:45;13.20;99.90
21678;DHT22;11000;50.360;7.582;2023-11-19T09:29:06;13.20;99.90
21678;DHT22;11000;50.360;7.582;2023-11-19T09:31:26;13.20;99.90
21678;DHT22;11000;50.360;7.582;2023-11-19T09:33:47;13.30;99.90
21678;DHT22;11000;50.360;7.582;2023-11-19T09:36:07;13.30;99.90
21678;DHT22;11000;50.360;7.582;2023-11-19T09:38:28;13.30;99.90
21678;DHT22;11000;50.360;7.582;2023-11-19T09:40:48;13.40;99.90
21678;DHT22;11000;50.360;7.582;2023-11-19T09:43:09;13.30;99.90
21678;DHT22;11000;50.360;7.582;2023-11-19T09:45:32;13.40;99.90
21678;DHT22;11000;50.360;7.582;2023-11-19T09:48:00;13.50;99.90
21678;DHT22;11000;50.360;7.582;2023-11-19T09:50:21;13.50;99.90
21678;DHT22;11000;50.360;7.582;2023-11-19T09:52:42;13.70;99.90
21678;DHT22;11000;50.360;7.582;2023-11-19T09:55:03;13.80;99.90
21678;DHT22;11000;50.360;7.582;2023-11-19T09:57:23;13.90;99.90
21678;DHT22;11000;50.360;7.582;2023-11-19T09:59:45;13.90;99.90
21678;DHT22;11000;50.360;7.582;2023-11-19T10:02:07;14.00;99.90
21678;DHT22;11000;50.360;7.582;2023-11-19T10:04:30;14.10;99.90
21678;DHT22;11000;50.360;7.582;2023-11-19T10:06:52;14.20;99.90
21678;DHT22;11000;50.360;7.582;2023-11-19T10:09:12;14.20;99.90
21678;DHT22;11000;50.360;7.582;2023-11-19T10:11:35;14.20;99.90
21678;DHT22;11000;50.360;7.582;2023-11-19T10:13:56;14.20;99.90
21678;DHT22;11000;50.360;7.582;2023-11-19T10:16:17;14.20;99.90
21678;DHT22;11000;50.360;7.582;2023-11-19T10:18:42;14.20;99.90
21678;DHT22;11000;50.360;7.582;2023-11-19T10:21:06;14.20;99.90
21678;DHT22;11000;50.360;7.582;2023-11-19T10:23:26;14.20;99.90
21678;DHT22;11000;50.360;7.582;2023-11-19T10:25:47;14.10;99.90
21678;DHT22;11000;50.360;7.582;2023-11-19T10:28:08;14.20;99.90
21678;DHT22;11000;50.360;7.582;2023-11-19T10:30:29;14.20;99.90
21678;DHT22;11000;50.360;7.582;2023-11-19T10:33:10;14.30;99.90
21678;DHT22;11000;50.360;7.582;2023-11-19T10:35:32;14.40;99.90
21678;DHT22;11000;50.360;7.582;2023-11-19T10:37:52;14.40;99.90
21678;DHT22;11000;50.360;7.582;2023-11-19T10:40:14;14.30;99.90
21678;DHT22;11000;50.360;7.582;2023-11-19T10:42:35;14.30;99.90
21678;DHT22;11000;50.360;7.582;2023-11-19T10:44:56;14.40;99.90
21678;DHT22;11000;50.360;7.582;2023-11-19T10:47:19;14.50;99.90
21678;DHT22;11000;50.360;7.582;2023-11-19T10:49:40;14.50;99.90
21678;DHT22;11000;50.360;7.582;2023-11-19T10:52:01;14.50;99.90
21678;DHT22;11000;50.360;7.582;2023-11-19T10:54:23;14.60;99.90
21678;DHT22;11000;50.360;7.582;2023-11-19T10:56:44;14.80;99.90
21678;DHT22;11000;50.360;7.582;2023-11-19T10:59:07;14.90;99.90
21678;DHT22;11000;50.360;7.582;2023-11-19T11:01:35;15.00;99.90
21678;DHT22;11000;50.360;7.582;2023-11-19T11:04:02;15.10;99.90
21678;DHT22;11000;50.360;7.582;2023-11-19T11:06:24;15.10;99.90
21678;DHT22;11000;50.360;7.582;2023-11-19T11:08:46;15.10;99.90
21678;DHT22;11000;50.360;7.582;2023-11-19T11:11:07;15.10;99.90
21678;DHT22;11000;50.360;7.582;2023-11-19T11:13:28;15.10;99.90
21678;DHT22;11000;50.360;7.582;2023-11-19T11:15:50;15.20;99.90
21678;DHT22;11000;50.360;7.582;2023-11-19T11:18:11;15.20;99.90
21678;DHT22;11000;50.360;7.582;2023-11-19T11:20:32;15.30;99.90
21678;DHT22;11000;50.360;7.582;2023-11-19T11:26:28;15.30;99.90
21678;DHT22;11000;50.360;7.582;2023-11-19T11:29:05;15.10;99.90
21678;DHT22;11000;50.360;7.582;2023-11-19T11:31:34;15.10;99.90
21678;DHT22;11000;50.360;7.582;2023-11-19T11:36:57;15.10;99.90
21678;DHT22;11000;50.360;7.582;2023-11-19T11:39:24;15.10;99.90
21678;DHT22;11000;50.360;7.582;2023-11-19T11:41:45;15.00;99.90
21678;DHT22;11000;50.360;7.582;2023-11-19T11:44:05;15.00;99.90
21678;DHT22;11000;50.360;7.582;2023-11-19T11:48:53;15.10;99.90
21678;DHT22;11000;50.360;7.582;2023-11-19T11:51:14;15.10;99.90
21678;DHT22;11000;50.360;7.582;2023-11-19T11:53:35;15.10;99.90
21678;DHT22;11000;50.360;7.582;2023-11-19T11:55:56;15.20;99.90
21678;DHT22;11000;50.360;7.582;2023-11-19T11:58:25;15.20;99.90
21678;DHT22;11000;50.360;7.582;2023-11-19T12:00:47;15.20;99.90
21678;DHT22;11000;50.360;7.582;2023-11-19T12:03:08;15.10;99.90
21678;DHT22;11000;50.360;7.582;2023-11-19T12:05:29;15.20;99.90
21678;DHT22;11000;50.360;7.582;2023-11-19T12:07:57;15.00;99.90
21678;DHT22;11000;50.360;7.582;2023-11-19T12:10:20;14.90;99.90
21678;DHT22;11000;50.360;7.582;2023-11-19T12:12:42;15.00;99.90
21678;DHT22;11000;50.360;7.582;2023-11-19T12:15:09;14.90;99.90
21678;DHT22;11000;50.360;7.582;2023-11-19T12:19:54;15.00;99.90
21678;DHT22;11000;50.360;7.582;2023-11-19T12:22:15;14.90;99.90
21678;DHT22;11000;50.360;7.582;2023-11-19T12:24:35;15.00;99.90
21678;DHT22;11000;50.360;7.582;2023-11-19T12:26:56;15.00;99.90
21678;DHT22;11000;50.360;7.582;2023-11-19T12:29:17;15.00;99.90
21678;DHT22;11000;50.360;7.582;2023-11-19T12:31:38;15.00;99.90
21678;DHT22;11000;50.360;7.582;2023-11-19T12:34:07;14.90;99.90
21678;DHT22;11000;50.360;7.582;2023-11-19T12:36:32;14.90;99.90
21678;DHT22;11000;50.360;7.582;2023-11-19T12:38:52;14.90;99.90
21678;DHT22;11000;50.360;7.582;2023-11-19T12:41:13;14.90;99.90
21678;DHT22;11000;50.360;7.582;2023-11-19T12:43:38;14.80;99.90
21678;DHT22;11000;50.360;7.582;2023-11-19T12:45:58;14.80;99.90
21678;DHT22;11000;50.360;7.582;2023-11-19T12:48:19;14.90;99.90
21678;DHT22;11000;50.360;7.582;2023-11-19T12:50:57;14.90;99.90
21678;DHT22;11000;50.360;7.582;2023-11-19T12:53:18;14.90;99.90
21678;DHT22;11000;50.360;7.582;2023-11-19T12:55:38;14.90;99.90
21678;DHT22;11000;50.360;7.582;2023-11-19T12:57:59;14.90;99.90
21678;DHT22;11000;50.360;7.582;2023-11-19T13:00:21;14.80;99.90
21678;DHT22;11000;50.360;7.582;2023-11-19T13:02:53;14.70;99.90
21678;DHT22;11000;50.360;7.582;2023-11-19T13:05:40;14.60;99.90
21678;DHT22;11000;50.360;7.582;2023-11-19T13:08:08;14.60;99.90
21678;DHT22;11000;50.360;7.582;2023-11-19T13:10:29;14.60;99.90
21678;DHT22;11000;50.360;7.582;2023-11-19T13:13:04;14.60;99.90
21678;DHT22;11000;50.360;7.582;2023-11-19T13:15:25;14.70;99.90
21678;DHT22;11000;50.360;7.582;2023-11-19T13:17:47;14.60;99.90
21678;DHT22;11000;50.360;7.582;2023-11-19T13:20:08;14.60;99.90
21678;DHT22;11000;50.360;7.582;2023-11-19T13:22:28;14.60;99.90
21678;DHT22;11000;50.360;7.582;2023-11-19T13:24:49;14.60;99.90
21678;DHT22;11000;50.360;7.582;2023-11-19T13:27:09;14.60;99.90
21678;DHT22;11000;50.360;7.582;2023-11-19T13:29:30;14.70;99.90
21678;DHT22;11000;50.360;7.582;2023-11-19T13:31:50;14.60;99.90
21678;DHT22;11000;50.360;7.582;2023-11-19T13:34:11;14.60;99.90
21678;DHT22;11000;50.360;7.582;2023-11-19T13:36:31;14.60;99.90
21678;DHT22;11000;50.360;7.582;2023-11-19T13:38:52;14.60;99.90
21678;DHT22;11000;50.360;7.582;2023-11-19T13:41:20;14.70;99.90
21678;DHT22;11000;50.360;7.582;2023-11-19T13:43:40;14.80;99.90
21678;DHT22;11000;50.360;7.582;2023-11-19T13:46:01;15.00;99.90
21678;DHT22;11000;50.360;7.582;2023-11-19T13:48:22;15.20;99.90
21678;DHT22;11000;50.360;7.582;2023-11-19T13:50:43;15.30;99.90
21678;DHT22;11000;50.360;7.582;2023-11-19T13:53:04;15.40;99.90
21678;DHT22;11000;50.360;7.582;2023-11-19T13:55:25;15.30;99.90
21678;DHT22;11000;50.360;7.582;2023-11-19T13:57:46;15.40;99.90
21678;DHT22;11000;50.360;7.582;2023-11-19T14:00:09;15.40;99.90
21678;DHT22;11000;50.360;7.582;2023-11-19T14:02:33;15.50;99.90
21678;DHT22;11000;50.360;7.582;2023-11-19T14:04:54;15.40;99.90
21678;DHT22;11000;50.360;7.582;2023-11-19T14:07:15;15.30;99.90
21678;DHT22;11000;50.360;7.582;2023-11-19T14:09:35;15.10;99.90
21678;DHT22;11000;50.360;7.582;2023-11-19T14:11:56;15.00;99.90
21678;DHT22;11000;50.360;7.582;2023-11-19T14:14:17;14.80;99.90
21678;DHT22;11000;50.360;7.582;2023-11-19T14:16:37;14.70;99.90
21678;DHT22;11000;50.360;7.582;2023-11-19T14:18:58;14.60;99.90
21678;DHT22;11000;50.360;7.582;2023-11-19T14:21:18;14.60;99.90
21678;DHT22;11000;50.360;7.582;2023-11-19T14:23:39;14.60;99.90
21678;DHT22;11000;50.360;7.582;2023-11-19T14:25:59;14.60;99.90
21678;DHT22;11000;50.360;7.582;2023-11-19T14:28:20;14.70;99.90
21678;DHT22;11000;50.360;7.582;2023-11-19T14:30:40;14.70;99.90
21678;DHT22;11000;50.360;7.582;2023-11-19T14:33:01;14.70;99.90
21678;DHT22;11000;50.360;7.582;2023-11-19T14:35:23;14.70;99.90
21678;DHT22;11000;50.360;7.582;2023-11-19T14:37:45;14.60;99.90
21678;DHT22;11000;50.360;7.582;2023-11-19T14:40:06;14.60;99.90
21678;DHT22;11000;50.360;7.582;2023-11-19T14:42:29;14.70;99.90
21678;DHT22;11000;50.360;7.582;2023-11-19T14:44:49;14.60;99.90
21678;DHT22;11000;50.360;7.582;2023-11-19T14:47:10;14.60;99.90
21678;DHT22;11000;50.360;7.582;2023-11-19T14:49:30;14.50;99.90
21678;DHT22;11000;50.360;7.582;2023-11-19T14:51:51;14.50;99.90
21678;DHT22;11000;50.360;7.582;2023-11-19T14:54:12;14.50;99.90
21678;DHT22;11000;50.360;7.582;2023-11-19T14:56:34;14.40;99.90
21678;DHT22;11000;50.360;7.582;2023-11-19T14:58:55;14.40;99.90
21678;DHT22;11000;50.360;7.582;2023-11-19T15:01:16;14.30;99.90
21678;DHT22;11000;50.360;7.582;2023-11-19T15:03:36;14.40;99.90